sensor_id;sensor_type;location;lat;lon;timestamp;pressure;altitude;pressure_sealevel;temperature;humidity
68712;BME280;55690;51.566;19.198;2022-10-16T00:01:46;101712.05;;;13.56;100.00
68712;BME280;55690;51.566;19.198;2022-10-16T00:05:52;101721.00;;;13.58;100.00
68712;BME280;55690;51.566;19.198;2022-10-16T00:09:59;101728.09;;;13.48;100.00
68712;BME280;55690;51.566;19.198;2022-10-16T00:14:09;101726.91;;;13.40;100.00
68712;BME280;55690;51.566;19.198;2022-10-16T00:18:12;101712.82;;;13.33;100.00
68712;BME280;55690;51.566;19.198;2022-10-16T00:22:17;101720.97;;;13.20;100.00
68712;BME280;55690;51.566;19.198;2022-10-16T00:26:23;101718.56;;;13.16;100.00
68712;BME280;55690;51.566;19.198;2022-10-16T00:30:29;101724.40;;;13.10;100.00
68712;BME280;55690;51.566;19.198;2022-10-16T00:34:35;101715.98;;;13.00;100.00
68712;BME280;55690;51.566;19.198;2022-10-16T00:38:42;101730.93;;;12.94;100.00
68712;BME280;55690;51.566;19.198;2022-10-16T00:42:48;101731.34;;;12.88;100.00
68712;BME280;55690;51.566;19.198;2022-10-16T00:46:54;101743.43;;;12.84;100.00
68712;BME280;55690;51.566;19.198;2022-10-16T00:51:00;101745.79;;;12.76;100.00
68712;BME280;55690;51.566;19.198;2022-10-16T00:55:08;101745.12;;;12.73;100.00
68712;BME280;55690;51.566;19.198;2022-10-16T00:59:19;101740.95;;;12.67;100.00
68712;BME280;55690;51.566;19.198;2022-10-16T01:03:30;101743.84;;;12.51;100.00
68712;BME280;55690;51.566;19.198;2022-10-16T01:11:57;101751.45;;;12.46;100.00
68712;BME280;55690;51.566;19.198;2022-10-16T01:29:24;101748.65;;;12.33;100.00
68712;BME280;55690;51.566;19.198;2022-10-16T01:37:12;101743.59;;;12.27;100.00
68712;BME280;55690;51.566;19.198;2022-10-16T01:41:22;101751.58;;;12.16;100.00
68712;BME280;55690;51.566;19.198;2022-10-16T01:45:28;101749.48;;;12.07;100.00
68712;BME280;55690;51.566;19.198;2022-10-16T01:49:34;101756.48;;;12.11;100.00
68712;BME280;55690;51.566;19.198;2022-10-16T01:53:39;101763.19;;;12.06;100.00
68712;BME280;55690;51.566;19.198;2022-10-16T01:57:44;101766.10;;;12.03;100.00
68712;BME280;55690;51.566;19.198;2022-10-16T02:01:52;101774.66;;;11.96;100.00
68712;BME280;55690;51.566;19.198;2022-10-16T02:05:56;101775.13;;;11.89;100.00
68712;BME280;55690;51.566;19.198;2022-10-16T02:10:03;101786.70;;;11.92;100.00
68712;BME280;55690;51.566;19.198;2022-10-16T02:14:06;101781.76;;;11.99;100.00
68712;BME280;55690;51.566;19.198;2022-10-16T02:18:09;101784.76;;;11.94;100.00
68712;BME280;55690;51.566;19.198;2022-10-16T02:22:39;101792.24;;;11.91;100.00
68712;BME280;55690;51.566;19.198;2022-10-16T02:26:30;101787.18;;;11.85;100.00
68712;BME280;55690;51.566;19.198;2022-10-16T02:30:40;101793.62;;;11.98;100.00
68712;BME280;55690;51.566;19.198;2022-10-16T02:34:45;101796.62;;;11.93;100.00
68712;BME280;55690;51.566;19.198;2022-10-16T02:38:48;101794.96;;;11.91;100.00
68712;BME280;55690;51.566;19.198;2022-10-16T02:42:53;101794.29;;;11.87;100.00
68712;BME280;55690;51.566;19.198;2022-10-16T02:46:55;101785.28;;;11.71;100.00
68712;BME280;55690;51.566;19.198;2022-10-16T02:50:57;101746.89;;;11.47;100.00
68712;BME280;55690;51.566;19.198;2022-10-16T02:54:58;101805.83;;;11.77;100.00
68712;BME280;55690;51.566;19.198;2022-10-16T02:59:03;101796.13;;;11.87;100.00
68712;BME280;55690;51.566;19.198;2022-10-16T03:03:05;101801.09;;;11.94;100.00
68712;BME280;55690;51.566;19.198;2022-10-16T03:07:06;101804.21;;;12.03;100.00
68712;BME280;55690;51.566;19.198;2022-10-16T03:11:09;101803.73;;;12.10;100.00
68712;BME280;55690;51.566;19.198;2022-10-16T03:15:10;101811.58;;;12.15;100.00
68712;BME280;55690;51.566;19.198;2022-10-16T03:19:12;101821.98;;;12.22;100.00
68712;BME280;55690;51.566;19.198;2022-10-16T03:23:13;101814.80;;;12.21;100.00
68712;BME280;55690;51.566;19.198;2022-10-16T03:27:15;101802.82;;;12.24;100.00
68712;BME280;55690;51.566;19.198;2022-10-16T03:31:16;101807.69;;;12.19;100.00
68712;BME280;55690;51.566;19.198;2022-10-16T03:35:17;101808.08;;;12.27;100.00
68712;BME280;55690;51.566;19.198;2022-10-16T03:39:19;101818.98;;;12.27;100.00
68712;BME280;55690;51.566;19.198;2022-10-16T03:43:21;101822.77;;;12.39;100.00
68712;BME280;55690;51.566;19.198;2022-10-16T03:47:25;101816.25;;;12.41;100.00
68712;BME280;55690;51.566;19.198;2022-10-16T03:51:32;101822.87;;;12.37;100.00
68712;BME280;55690;51.566;19.198;2022-10-16T03:55:38;101813.43;;;12.43;100.00
68712;BME280;55690;51.566;19.198;2022-10-16T03:59:44;101811.87;;;12.39;100.00
68712;BME280;55690;51.566;19.198;2022-10-16T04:03:50;101818.68;;;12.46;100.00
68712;BME280;55690;51.566;19.198;2022-10-16T04:07:56;101823.73;;;12.52;100.00
68712;BME280;55690;51.566;19.198;2022-10-16T04:12:03;101818.58;;;12.47;100.00
68712;BME280;55690;51.566;19.198;2022-10-16T04:16:09;101819.46;;;12.48;100.00
68712;BME280;55690;51.566;19.198;2022-10-16T04:20:15;101819.25;;;12.51;100.00
68712;BME280;55690;51.566;19.198;2022-10-16T04:24:21;101827.82;;;12.45;100.00
68712;BME280;55690;51.566;19.198;2022-10-16T04:28:28;101831.80;;;12.53;100.00
68712;BME280;55690;51.566;19.198;2022-10-16T04:32:33;101836.48;;;12.51;100.00
68712;BME280;55690;51.566;19.198;2022-10-16T04:36:40;101837.02;;;12.56;100.00
68712;BME280;55690;51.566;19.198;2022-10-16T04:40:46;101840.63;;;12.57;100.00
68712;BME280;55690;51.566;19.198;2022-10-16T04:44:52;101805.34;;;12.41;100.00
68712;BME280;55690;51.566;19.198;2022-10-16T04:48:58;101826.99;;;12.71;100.00
68712;BME280;55690;51.566;19.198;2022-10-16T04:53:05;101820.76;;;12.69;100.00
68712;BME280;55690;51.566;19.198;2022-10-16T04:57:11;101826.48;;;12.79;100.00
68712;BME280;55690;51.566;19.198;2022-10-16T05:01:22;101829.31;;;12.77;100.00
68712;BME280;55690;51.566;19.198;2022-10-16T05:09:29;101824.64;;;12.79;100.00
68712;BME280;55690;51.566;19.198;2022-10-16T05:13:35;101828.34;;;12.78;100.00
68712;BME280;55690;51.566;19.198;2022-10-16T05:17:41;101833.48;;;12.83;100.00
68712;BME280;55690;51.566;19.198;2022-10-16T05:21:47;101830.93;;;12.94;100.00
68712;BME280;55690;51.566;19.198;2022-10-16T05:25:55;101836.95;;;12.99;100.00
68712;BME280;55690;51.566;19.198;2022-10-16T05:30:00;101843.27;;;12.99;100.00
68712;BME280;55690;51.566;19.198;2022-10-16T05:34:06;101839.91;;;13.09;100.00
68712;BME280;55690;51.566;19.198;2022-10-16T05:38:12;101844.89;;;13.02;100.00
68712;BME280;55690;51.566;19.198;2022-10-16T05:42:18;101844.28;;;13.11;100.00
68712;BME280;55690;51.566;19.198;2022-10-16T05:46:24;101852.87;;;13.19;100.00
68712;BME280;55690;51.566;19.198;2022-10-16T05:50:31;101861.53;;;13.12;100.00
68712;BME280;55690;51.566;19.198;2022-10-16T05:54:37;101862.30;;;13.14;100.00
68712;BME280;55690;51.566;19.198;2022-10-16T05:58:43;101865.43;;;13.22;100.00
68712;BME280;55690;51.566;19.198;2022-10-16T06:02:49;101879.37;;;13.17;100.00
68712;BME280;55690;51.566;19.198;2022-10-16T06:06:58;101867.17;;;13.23;100.00
68712;BME280;55690;51.566;19.198;2022-10-16T06:11:09;101874.48;;;13.22;100.00
68712;BME280;55690;51.566;19.198;2022-10-16T06:15:14;101878.25;;;13.34;100.00
68712;BME280;55690;51.566;19.198;2022-10-16T06:19:16;101892.19;;;13.29;100.00
68712;BME280;55690;51.566;19.198;2022-10-16T06:23:20;101891.70;;;13.50;100.00
68712;BME280;55690;51.566;19.198;2022-10-16T06:27:26;101904.83;;;13.57;100.00
68712;BME280;55690;51.566;19.198;2022-10-16T06:31:32;101913.16;;;13.69;100.00
68712;BME280;55690;51.566;19.198;2022-10-16T06:35:42;101906.55;;;13.85;100.00
68712;BME280;55690;51.566;19.198;2022-10-16T06:39:45;101901.65;;;14.03;100.00
68712;BME280;55690;51.566;19.198;2022-10-16T06:43:51;101910.93;;;14.01;100.00
68712;BME280;55690;51.566;19.198;2022-10-16T06:47:57;101923.28;;;14.06;100.00
68712;BME280;55690;51.566;19.198;2022-10-16T06:52:03;101921.66;;;14.16;100.00
68712;BME280;55690;51.566;19.198;2022-10-16T06:56:17;101924.97;;;14.47;100.00
68712;BME280;55690;51.566;19.198;2022-10-16T07:00:19;101912.29;;;14.58;100.00
68712;BME280;55690;51.566;19.198;2022-10-16T07:04:22;101892.40;;;14.44;100.00
68712;BME280;55690;51.566;19.198;2022-10-16T07:08:31;101927.38;;;14.64;100.00
68712;BME280;55690;51.566;19.198;2022-10-16T07:12:35;101934.78;;;14.75;100.00
68712;BME280;55690;51.566;19.198;2022-10-16T07:16:40;101932.38;;;14.83;100.00
68712;BME280;55690;51.566;19.198;2022-10-16T07:20:46;101929.23;;;14.63;100.00
68712;BME280;55690;51.566;19.198;2022-10-16T07:24:52;101927.60;;;14.48;100.00
68712;BME280;55690;51.566;19.198;2022-10-16T07:28:59;101929.13;;;14.65;100.00
68712;BME280;55690;51.566;19.198;2022-10-16T07:33:05;101925.80;;;14.85;100.00
68712;BME280;55690;51.566;19.198;2022-10-16T07:37:11;101926.74;;;15.10;100.00
68712;BME280;55690;51.566;19.198;2022-10-16T07:41:19;101933.83;;;15.49;100.00
68712;BME280;55690;51.566;19.198;2022-10-16T07:45:23;101937.50;;;15.60;100.00
68712;BME280;55690;51.566;19.198;2022-10-16T07:49:30;101939.24;;;15.85;100.00
68712;BME280;55690;51.566;19.198;2022-10-16T07:57:42;101970.66;;;15.69;100.00
68712;BME280;55690;51.566;19.198;2022-10-16T08:01:49;101975.90;;;15.72;100.00
68712;BME280;55690;51.566;19.198;2022-10-16T08:05:58;101979.16;;;15.77;100.00
68712;BME280;55690;51.566;19.198;2022-10-16T08:10:00;101977.41;;;15.76;100.00
68712;BME280;55690;51.566;19.198;2022-10-16T08:14:11;101971.30;;;15.72;100.00
68712;BME280;55690;51.566;19.198;2022-10-16T08:18:14;101975.78;;;15.73;100.00
68712;BME280;55690;51.566;19.198;2022-10-16T08:22:19;101981.02;;;15.76;100.00
68712;BME280;55690;51.566;19.198;2022-10-16T08:26:29;101978.70;;;15.83;100.00
68712;BME280;55690;51.566;19.198;2022-10-16T08:30:31;101982.49;;;15.93;100.00
68712;BME280;55690;51.566;19.198;2022-10-16T08:34:37;101984.76;;;15.99;100.00
68712;BME280;55690;51.566;19.198;2022-10-16T08:38:49;102000.75;;;16.16;100.00
68712;BME280;55690;51.566;19.198;2022-10-16T08:59:29;102015.27;;;16.06;100.00
68712;BME280;55690;51.566;19.198;2022-10-16T09:07:55;101977.13;;;16.26;100.00
68712;BME280;55690;51.566;19.198;2022-10-16T09:12:09;101982.84;;;16.23;100.00
68712;BME280;55690;51.566;19.198;2022-10-16T09:24:35;101992.38;;;16.53;100.00
68712;BME280;55690;51.566;19.198;2022-10-16T09:28:48;101986.05;;;16.63;100.00
68712;BME280;55690;51.566;19.198;2022-10-16T09:37:30;101993.84;;;16.81;100.00
68712;BME280;55690;51.566;19.198;2022-10-16T09:41:57;102000.46;;;16.89;100.00
68712;BME280;55690;51.566;19.198;2022-10-16T09:46:29;102009.18;;;17.17;100.00
68712;BME280;55690;51.566;19.198;2022-10-16T09:51:05;102011.92;;;17.17;100.00
68712;BME280;55690;51.566;19.198;2022-10-16T09:55:32;102015.79;;;17.14;100.00
68712;BME280;55690;51.566;19.198;2022-10-16T10:00:08;102011.68;;;17.20;100.00
68712;BME280;55690;51.566;19.198;2022-10-16T10:04:41;102011.38;;;17.45;100.00
68712;BME280;55690;51.566;19.198;2022-10-16T10:13:40;102010.37;;;17.57;100.00
68712;BME280;55690;51.566;19.198;2022-10-16T10:18:19;101923.34;;;17.26;100.00
68712;BME280;55690;51.566;19.198;2022-10-16T10:22:51;101997.09;;;17.85;100.00
68712;BME280;55690;51.566;19.198;2022-10-16T10:27:19;102004.81;;;17.91;100.00
68712;BME280;55690;51.566;19.198;2022-10-16T10:54:32;102000.46;;;18.83;100.00
68712;BME280;55690;51.566;19.198;2022-10-16T10:59:07;102008.72;;;18.83;100.00
68712;BME280;55690;51.566;19.198;2022-10-16T11:12:40;101993.88;;;18.95;100.00
68712;BME280;55690;51.566;19.198;2022-10-16T11:17:19;101999.59;;;18.82;100.00
68712;BME280;55690;51.566;19.198;2022-10-16T11:21:49;101999.23;;;18.97;100.00
68712;BME280;55690;51.566;19.198;2022-10-16T11:26:23;101992.74;;;18.77;100.00
68712;BME280;55690;51.566;19.198;2022-10-16T11:48:39;101995.36;;;19.09;100.00
68712;BME280;55690;51.566;19.198;2022-10-16T11:57:47;101998.17;;;18.88;100.00
68712;BME280;55690;51.566;19.198;2022-10-16T12:15:50;102012.52;;;19.22;100.00
68712;BME280;55690;51.566;19.198;2022-10-16T12:20:31;102016.56;;;19.18;100.00
68712;BME280;55690;51.566;19.198;2022-10-16T12:24:54;102009.57;;;19.44;100.00
68712;BME280;55690;51.566;19.198;2022-10-16T12:42:33;101999.93;;;19.69;98.57
68712;BME280;55690;51.566;19.198;2022-10-16T12:46:53;101997.47;;;19.66;97.99
68712;BME280;55690;51.566;19.198;2022-10-16T12:55:42;102014.70;;;19.58;98.11
68712;BME280;55690;51.566;19.198;2022-10-16T13:09:00;102017.98;;;19.92;97.15
68712;BME280;55690;51.566;19.198;2022-10-16T13:26:49;102015.92;;;19.35;97.85
68712;BME280;55690;51.566;19.198;2022-10-16T13:31:14;102021.88;;;19.40;98.11
68712;BME280;55690;51.566;19.198;2022-10-16T13:35:46;102018.63;;;19.25;98.37
68712;BME280;55690;51.566;19.198;2022-10-16T13:44:31;102018.49;;;19.27;98.84
68712;BME280;55690;51.566;19.198;2022-10-16T13:49:02;102027.90;;;19.24;99.55
68712;BME280;55690;51.566;19.198;2022-10-16T13:53:22;102045.62;;;19.32;99.94
68712;BME280;55690;51.566;19.198;2022-10-16T13:57:40;102038.51;;;19.29;100.00
68712;BME280;55690;51.566;19.198;2022-10-16T14:02:00;102037.91;;;19.25;99.98
68712;BME280;55690;51.566;19.198;2022-10-16T14:06:20;102049.11;;;19.34;100.00
68712;BME280;55690;51.566;19.198;2022-10-16T14:10:39;102052.96;;;19.21;100.00
68712;BME280;55690;51.566;19.198;2022-10-16T14:14:59;102061.17;;;19.12;100.00
68712;BME280;55690;51.566;19.198;2022-10-16T14:19:27;102064.19;;;19.09;100.00
68712;BME280;55690;51.566;19.198;2022-10-16T14:23:45;102072.55;;;18.98;100.00
68712;BME280;55690;51.566;19.198;2022-10-16T14:32:29;102087.33;;;18.97;100.00
68712;BME280;55690;51.566;19.198;2022-10-16T14:36:46;102088.47;;;18.94;100.00
68712;BME280;55690;51.566;19.198;2022-10-16T14:41:05;102088.67;;;19.02;100.00
68712;BME280;55690;51.566;19.198;2022-10-16T14:45:25;102085.98;;;18.91;100.00
68712;BME280;55690;51.566;19.198;2022-10-16T14:53:54;102107.40;;;18.87;100.00
68712;BME280;55690;51.566;19.198;2022-10-16T14:58:16;102113.56;;;18.80;100.00
68712;BME280;55690;51.566;19.198;2022-10-16T15:02:38;102118.20;;;18.79;100.00
68712;BME280;55690;51.566;19.198;2022-10-16T15:06:53;102134.48;;;18.71;100.00
68712;BME280;55690;51.566;19.198;2022-10-16T15:11:14;102118.55;;;18.54;100.00
68712;BME280;55690;51.566;19.198;2022-10-16T15:15:54;102120.04;;;18.58;100.00
68712;BME280;55690;51.566;19.198;2022-10-16T15:24:18;102129.37;;;18.35;100.00
68712;BME280;55690;51.566;19.198;2022-10-16T15:28:22;102131.76;;;18.28;100.00
68712;BME280;55690;51.566;19.198;2022-10-16T15:32:24;102131.69;;;18.18;100.00
68712;BME280;55690;51.566;19.198;2022-10-16T15:36:33;102135.08;;;18.11;100.00
68712;BME280;55690;51.566;19.198;2022-10-16T15:40:37;102133.70;;;18.05;100.00
68712;BME280;55690;51.566;19.198;2022-10-16T15:44:40;102139.09;;;17.95;100.00
68712;BME280;55690;51.566;19.198;2022-10-16T15:48:42;102138.85;;;17.87;100.00
68712;BME280;55690;51.566;19.198;2022-10-16T15:53:42;102153.00;;;17.72;100.00
68712;BME280;55690;51.566;19.198;2022-10-16T15:57:47;102158.81;;;17.56;100.00
68712;BME280;55690;51.566;19.198;2022-10-16T16:01:50;102154.92;;;17.36;100.00
68712;BME280;55690;51.566;19.198;2022-10-16T16:05:57;102164.55;;;17.31;100.00
68712;BME280;55690;51.566;19.198;2022-10-16T16:10:05;102156.17;;;17.21;100.00
68712;BME280;55690;51.566;19.198;2022-10-16T16:22:23;102181.02;;;16.84;100.00
68712;BME280;55690;51.566;19.198;2022-10-16T16:26:29;102177.12;;;16.76;100.00
68712;BME280;55690;51.566;19.198;2022-10-16T16:30:38;102180.56;;;16.67;100.00
68712;BME280;55690;51.566;19.198;2022-10-16T16:34:40;102186.16;;;16.65;100.00
68712;BME280;55690;51.566;19.198;2022-10-16T16:38:46;102187.71;;;16.56;100.00
68712;BME280;55690;51.566;19.198;2022-10-16T16:42:53;102198.26;;;16.50;100.00
68712;BME280;55690;51.566;19.198;2022-10-16T16:46:58;102216.70;;;16.48;100.00
68712;BME280;55690;51.566;19.198;2022-10-16T16:51:05;102206.23;;;16.42;100.00
68712;BME280;55690;51.566;19.198;2022-10-16T16:59:19;102215.55;;;16.39;100.00
68712;BME280;55690;51.566;19.198;2022-10-16T17:03:23;102224.88;;;16.37;100.00
68712;BME280;55690;51.566;19.198;2022-10-16T17:07:31;102231.34;;;16.36;100.00
68712;BME280;55690;51.566;19.198;2022-10-16T17:11:36;102238.05;;;16.32;100.00
68712;BME280;55690;51.566;19.198;2022-10-16T17:15:48;102238.39;;;16.27;100.00
68712;BME280;55690;51.566;19.198;2022-10-16T17:19:51;102256.26;;;16.33;100.00
68712;BME280;55690;51.566;19.198;2022-10-16T17:23:53;102250.01;;;16.30;100.00
68712;BME280;55690;51.566;19.198;2022-10-16T17:28:00;102255.26;;;16.34;100.00
68712;BME280;55690;51.566;19.198;2022-10-16T17:32:06;102270.30;;;16.28;100.00
68712;BME280;55690;51.566;19.198;2022-10-16T17:36:13;102276.01;;;16.25;100.00
68712;BME280;55690;51.566;19.198;2022-10-16T17:40:23;102279.08;;;16.20;100.00
68712;BME280;55690;51.566;19.198;2022-10-16T17:44:29;102279.30;;;16.17;100.00
68712;BME280;55690;51.566;19.198;2022-10-16T17:48:43;102285.01;;;16.14;100.00
68712;BME280;55690;51.566;19.198;2022-10-16T17:52:45;102277.99;;;16.10;100.00
68712;BME280;55690;51.566;19.198;2022-10-16T17:56:47;102282.93;;;16.05;100.00
68712;BME280;55690;51.566;19.198;2022-10-16T18:00:49;102292.40;;;16.01;100.00
68712;BME280;55690;51.566;19.198;2022-10-16T18:04:55;102293.13;;;16.03;100.00
68712;BME280;55690;51.566;19.198;2022-10-16T18:09:03;102298.20;;;15.96;100.00
68712;BME280;55690;51.566;19.198;2022-10-16T18:13:08;102301.80;;;15.84;100.00
68712;BME280;55690;51.566;19.198;2022-10-16T18:17:14;102311.13;;;15.82;100.00
68712;BME280;55690;51.566;19.198;2022-10-16T18:21:20;102313.74;;;15.83;100.00
68712;BME280;55690;51.566;19.198;2022-10-16T18:25:26;102325.80;;;15.81;100.00
68712;BME280;55690;51.566;19.198;2022-10-16T18:29:32;102331.04;;;15.71;100.00
68712;BME280;55690;51.566;19.198;2022-10-16T18:33:39;102341.55;;;15.64;100.00
68712;BME280;55690;51.566;19.198;2022-10-16T18:37:44;102339.80;;;15.63;100.00
68712;BME280;55690;51.566;19.198;2022-10-16T18:41:51;102354.44;;;15.50;100.00
68712;BME280;55690;51.566;19.198;2022-10-16T18:46:02;102356.51;;;15.46;100.00
68712;BME280;55690;51.566;19.198;2022-10-16T18:50:05;102358.47;;;15.44;100.00
68712;BME280;55690;51.566;19.198;2022-10-16T18:58:15;102363.80;;;15.33;100.00
68712;BME280;55690;51.566;19.198;2022-10-16T19:02:22;102368.49;;;15.31;100.00
68712;BME280;55690;51.566;19.198;2022-10-16T19:06:28;102372.22;;;15.30;100.00
68712;BME280;55690;51.566;19.198;2022-10-16T19:10:36;102381.71;;;15.24;100.00
68712;BME280;55690;51.566;19.198;2022-10-16T19:14:40;102384.86;;;15.18;100.00
68712;BME280;55690;51.566;19.198;2022-10-16T19:18:48;102383.85;;;15.07;100.00
68712;BME280;55690;51.566;19.198;2022-10-16T19:22:52;102383.01;;;14.92;100.00
68712;BME280;55690;51.566;19.198;2022-10-16T19:26:59;102388.57;;;14.90;100.00
68712;BME280;55690;51.566;19.198;2022-10-16T19:31:07;102388.10;;;14.84;100.00
68712;BME280;55690;51.566;19.198;2022-10-16T19:35:11;102400.70;;;14.86;100.00
68712;BME280;55690;51.566;19.198;2022-10-16T19:39:17;102393.29;;;14.74;100.00
68712;BME280;55690;51.566;19.198;2022-10-16T19:43:23;102415.30;;;14.73;100.00
68712;BME280;55690;51.566;19.198;2022-10-16T19:47:30;102411.29;;;14.64;100.00
68712;BME280;55690;51.566;19.198;2022-10-16T19:51:36;102420.38;;;14.64;100.00
68712;BME280;55690;51.566;19.198;2022-10-16T19:55:42;102429.75;;;14.60;100.00
68712;BME280;55690;51.566;19.198;2022-10-16T19:59:51;102425.55;;;14.55;100.00
68712;BME280;55690;51.566;19.198;2022-10-16T20:03:54;102429.05;;;14.43;100.00
68712;BME280;55690;51.566;19.198;2022-10-16T20:08:00;102439.89;;;14.44;100.00
68712;BME280;55690;51.566;19.198;2022-10-16T20:12:07;102435.56;;;14.40;100.00
68712;BME280;55690;51.566;19.198;2022-10-16T20:16:13;102444.32;;;14.31;100.00
68712;BME280;55690;51.566;19.198;2022-10-16T20:20:19;102457.10;;;14.30;100.00
68712;BME280;55690;51.566;19.198;2022-10-16T20:24:25;102451.17;;;14.24;100.00
68712;BME280;55690;51.566;19.198;2022-10-16T20:28:31;102469.34;;;14.25;100.00
68712;BME280;55690;51.566;19.198;2022-10-16T20:32:37;102468.45;;;14.24;100.00
68712;BME280;55690;51.566;19.198;2022-10-16T20:36:43;102469.70;;;14.19;100.00
68712;BME280;55690;51.566;19.198;2022-10-16T20:40:50;102475.87;;;14.22;100.00
68712;BME280;55690;51.566;19.198;2022-10-16T20:44:56;102475.96;;;14.21;100.00
68712;BME280;55690;51.566;19.198;2022-10-16T20:49:02;102484.62;;;14.13;100.00
68712;BME280;55690;51.566;19.198;2022-10-16T20:53:08;102483.46;;;14.17;100.00
68712;BME280;55690;51.566;19.198;2022-10-16T20:57:14;102493.60;;;14.15;100.00
68712;BME280;55690;51.566;19.198;2022-10-16T21:01:22;102503.84;;;14.12;100.00
68712;BME280;55690;51.566;19.198;2022-10-16T21:05:27;102495.83;;;14.09;100.00
68712;BME280;55690;51.566;19.198;2022-10-16T21:09:33;102504.21;;;14.06;100.00
68712;BME280;55690;51.566;19.198;2022-10-16T21:17:45;102512.85;;;13.98;100.00
68712;BME280;55690;51.566;19.198;2022-10-16T21:21:51;102514.61;;;13.99;100.00
68712;BME280;55690;51.566;19.198;2022-10-16T21:25:58;102511.98;;;13.97;100.00
68712;BME280;55690;51.566;19.198;2022-10-16T21:30:08;102517.63;;;13.94;100.00
68712;BME280;55690;51.566;19.198;2022-10-16T21:34:10;102514.89;;;13.94;100.00
68712;BME280;55690;51.566;19.198;2022-10-16T21:38:16;102520.05;;;13.85;100.00
68712;BME280;55690;51.566;19.198;2022-10-16T21:42:22;102518.20;;;13.85;100.00
68712;BME280;55690;51.566;19.198;2022-10-16T21:46:31;102515.34;;;13.87;100.00
68712;BME280;55690;51.566;19.198;2022-10-16T21:50:34;102517.99;;;13.88;100.00
68712;BME280;55690;51.566;19.198;2022-10-16T21:54:41;102534.38;;;13.88;100.00
68712;BME280;55690;51.566;19.198;2022-10-16T21:58:47;102537.32;;;13.85;100.00
68712;BME280;55690;51.566;19.198;2022-10-16T22:02:53;102541.20;;;13.81;100.00
68712;BME280;55690;51.566;19.198;2022-10-16T22:07:00;102542.25;;;13.79;100.00
68712;BME280;55690;51.566;19.198;2022-10-16T22:11:16;102539.88;;;13.73;100.00
68712;BME280;55690;51.566;19.198;2022-10-16T22:15:18;102546.40;;;13.70;100.00
68712;BME280;55690;51.566;19.198;2022-10-16T22:19:21;102549.57;;;13.62;100.00
68712;BME280;55690;51.566;19.198;2022-10-16T22:23:24;102563.05;;;13.65;100.00
68712;BME280;55690;51.566;19.198;2022-10-16T22:27:30;102555.55;;;13.69;100.00
68712;BME280;55690;51.566;19.198;2022-10-16T22:31:36;102557.58;;;13.65;100.00
68712;BME280;55690;51.566;19.198;2022-10-16T22:35:42;102557.68;;;13.64;100.00
68712;BME280;55690;51.566;19.198;2022-10-16T22:39:48;102563.83;;;13.68;100.00
68712;BME280;55690;51.566;19.198;2022-10-16T22:43:55;102573.61;;;13.72;100.00
68712;BME280;55690;51.566;19.198;2022-10-16T22:48:02;102568.42;;;13.67;100.00
68712;BME280;55690;51.566;19.198;2022-10-16T22:52:07;102570.97;;;13.70;100.00
68712;BME280;55690;51.566;19.198;2022-10-16T22:56:15;102580.56;;;13.77;100.00
68712;BME280;55690;51.566;19.198;2022-10-16T23:00:19;102580.13;;;13.85;100.00
68712;BME280;55690;51.566;19.198;2022-10-16T23:04:25;102574.67;;;13.85;100.00
68712;BME280;55690;51.566;19.198;2022-10-16T23:08:32;102580.71;;;13.90;100.00
68712;BME280;55690;51.566;19.198;2022-10-16T23:12:38;102586.00;;;13.93;100.00
68712;BME280;55690;51.566;19.198;2022-10-16T23:16:44;102586.51;;;13.99;100.00
68712;BME280;55690;51.566;19.198;2022-10-16T23:20:50;102589.24;;;13.99;100.00
68712;BME280;55690;51.566;19.198;2022-10-16T23:24:56;102588.45;;;13.97;100.00
68712;BME280;55690;51.566;19.198;2022-10-16T23:29:03;102590.39;;;13.95;100.00
68712;BME280;55690;51.566;19.198;2022-10-16T23:33:09;102591.19;;;13.97;100.00
68712;BME280;55690;51.566;19.198;2022-10-16T23:37:15;102591.55;;;13.91;100.00
68712;BME280;55690;51.566;19.198;2022-10-16T23:41:21;102588.20;;;13.86;100.00
68712;BME280;55690;51.566;19.198;2022-10-16T23:49:33;102597.22;;;13.73;100.00
68712;BME280;55690;51.566;19.198;2022-10-16T23:53:39;102599.23;;;13.69;100.00
68712;BME280;55690;51.566;19.198;2022-10-16T23:57:46;102609.11;;;13.72;100.00
